Time;durP1;ratioP1;P1;durP2;ratioP2;P2;SDS_P1;SDS_P2;PMS_P1;PMS_P2;Temp;Humidity;BMP_temperature;BMP_pressure;BME280_temperature;BME280_humidity;BME280_pressure;Samples;Min_cycle;Max_cycle;Signal;HPM_P1;HPM_P2
2021/08/05 00:00:57;;;;;;;8.20;3.47;;;;;;;14.04;93.62;98641.53;5064942;28;20048;-65
2021/08/05 00:03:22;;;;;;;6.47;3.53;;;;;;;14.08;93.68;98641.41;5065021;28;20020;-65
2021/08/05 00:05:48;;;;;;;9.30;3.83;;;;;;;14.15;93.27;98648.25;5064959;28;20088;-65
2021/08/05 00:08:13;;;;;;;14.07;4.25;;;;;;;14.15;93.56;98637.66;5064977;28;20023;-65
2021/08/05 00:10:39;;;;;;;5.60;3.25;;;;;;;14.05;93.42;98630.06;5064993;28;20028;-65
2021/08/05 00:13:04;;;;;;;8.00;3.65;;;;;;;14.09;93.35;98636.97;5064893;28;20274;-65
2021/08/05 00:15:30;;;;;;;7.20;3.75;;;;;;;14.07;93.02;98634.38;5064808;28;20316;-65
2021/08/05 00:17:55;;;;;;;4.88;3.42;;;;;;;14.00;93.04;98631.97;5064821;28;20080;-65
2021/08/05 00:20:21;;;;;;;7.35;3.60;;;;;;;14.00;92.78;98637.28;5064766;28;20194;-65
2021/08/05 00:22:47;;;;;;;9.93;3.55;;;;;;;14.04;93.30;98637.13;5060048;28;20275;-65
2021/08/05 00:25:12;;;;;;;5.97;3.80;;;;;;;14.01;93.17;98621.34;5044650;28;20025;-65
2021/08/05 00:27:37;;;;;;;11.88;3.92;;;;;;;13.97;92.90;98616.19;5044641;28;20088;-65
2021/08/05 00:30:04;;;;;;;5.20;3.30;;;;;;;13.88;92.40;98613.84;5043706;28;20044;-65
2021/08/05 00:32:29;;;;;;;7.78;3.40;;;;;;;13.59;92.12;98603.34;5044576;28;20017;-65
2021/08/05 00:34:55;;;;;;;9.73;3.67;;;;;;;13.59;93.15;98608.63;5060828;28;20024;-65
2021/08/05 00:37:20;;;;;;;6.05;3.47;;;;;;;13.64;92.90;98604.09;5064480;28;20092;-65
2021/08/05 00:39:45;;;;;;;8.77;3.13;;;;;;;13.51;92.35;98594.81;5064437;28;20017;-65
2021/08/05 00:42:11;;;;;;;5.55;3.50;;;;;;;13.54;92.95;98598.19;5064630;28;20336;-65
2021/08/05 00:44:36;;;;;;;9.55;3.78;;;;;;;13.42;92.65;98595.97;5064247;28;20023;-65
2021/08/05 00:47:04;;;;;;;10.82;3.50;;;;;;;13.28;92.84;98592.00;5064246;28;20017;-65
2021/08/05 00:49:29;;;;;;;6.47;3.17;;;;;;;13.25;93.07;98587.69;5064250;28;20021;-65
2021/08/05 00:51:55;;;;;;;10.15;3.40;;;;;;;13.16;93.06;98576.53;5048662;28;20272;-65
2021/08/05 00:54:20;;;;;;;7.97;3.22;;;;;;;13.12;93.20;98574.88;5044286;28;20021;-65
2021/08/05 00:56:45;;;;;;;4.70;2.80;;;;;;;13.04;92.99;98568.03;5044220;28;20080;-65
2021/08/05 00:59:11;;;;;;;6.63;3.58;;;;;;;13.01;93.47;98581.34;5044195;28;20063;-65
2021/08/05 01:01:41;;;;;;;6.45;3.55;;;;;;;12.99;93.68;98575.28;5043997;28;20041;-65
2021/08/05 01:04:08;;;;;;;5.25;3.10;;;;;;;12.94;94.12;98566.56;5044110;28;20060;-65
2021/08/05 01:07:06;;;;;;;10.88;3.00;;;;;;;13.07;93.89;98567.97;5043982;28;20088;-65
2021/08/05 01:09:52;;;;;;;9.95;3.38;;;;;;;13.01;93.03;98573.41;5050144;28;20024;-66
2021/08/05 01:12:39;;;;;;;7.18;3.53;;;;;;;12.80;94.40;98558.19;5064000;28;20281;-65
2021/08/05 01:15:14;;;;;;;4.63;2.92;;;;;;;12.91;94.03;98561.38;5063921;28;20280;-65
2021/08/05 01:17:50;;;;;;;33.05;3.42;;;;;;;12.82;93.25;98545.78;5063907;28;20016;-65
2021/08/05 01:20:21;;;;;;;5.35;2.90;;;;;;;12.76;93.40;98553.88;5063894;28;20048;-65
2021/08/05 01:23:08;;;;;;;10.20;3.40;;;;;;;12.71;93.92;98557.59;5063837;28;20020;-65
2021/08/05 01:25:54;;;;;;;3.88;2.50;;;;;;;12.76;94.32;98648.97;5063706;28;20313;-65
2021/08/05 01:28:20;;;;;;;5.03;2.60;;;;;;;12.69;94.87;98676.47;5062130;28;20020;-65
2021/08/05 01:30:48;;;;;;;4.88;3.10;;;;;;;12.71;94.95;98693.13;5063727;28;20021;-65
2021/08/05 01:33:17;;;;;;;8.20;3.10;;;;;;;12.79;94.53;98714.91;5063726;28;20020;-65
2021/08/05 01:35:43;;;;;;;4.88;2.90;;;;;;;12.75;94.04;98739.69;5063779;28;20088;-65
2021/08/05 01:38:11;;;;;;;3.55;2.65;;;;;;;12.79;94.01;98748.41;5063782;28;20043;-65
2021/08/05 01:40:39;;;;;;;6.43;3.38;;;;;;;12.87;93.77;98781.63;5063668;28;20013;-65
2021/08/05 01:43:04;;;;;;;6.28;2.80;;;;;;;12.72;93.67;98776.72;5067619;28;20021;-65
2021/08/05 01:45:30;;;;;;;8.00;2.90;;;;;;;12.73;93.85;98789.06;5067592;28;20028;-65
2021/08/05 01:47:57;;;;;;;4.05;2.58;;;;;;;12.70;93.65;98847.25;5067619;28;20063;-65
2021/08/05 01:50:23;;;;;;;7.25;2.85;;;;;;;12.62;93.59;98843.91;5067611;28;20021;-65
2021/08/05 01:52:49;;;;;;;5.28;2.55;;;;;;;12.62;93.41;98833.34;5067566;28;20368;-65
2021/08/05 01:55:15;;;;;;;2.67;2.10;;;;;;;12.63;92.75;98872.03;5065720;28;20027;-65
2021/08/05 01:57:40;;;;;;;3.67;2.33;;;;;;;12.60;93.06;98877.38;5047485;28;20022;-65
2021/08/05 02:00:07;;;;;;;4.75;2.22;;;;;;;12.50;93.10;98891.72;5047308;28;20052;-65
2021/08/05 02:02:32;;;;;;;3.22;2.35;;;;;;;12.56;93.32;98920.59;5047320;28;20017;-65
2021/08/05 02:05:07;;;;;;;6.72;2.30;;;;;;;12.58;93.78;98926.75;5047295;28;20370;-65
2021/08/05 02:07:45;;;;;;;4.22;2.58;;;;;;;12.57;93.77;98932.91;5047310;28;20305;-65
2021/08/05 02:10:17;;;;;;;5.55;2.40;;;;;;;12.47;93.74;98939.28;5047302;28;20025;-65
2021/08/05 02:12:46;;;;;;;5.70;2.45;;;;;;;12.51;94.28;98967.41;5048342;28;20025;-65
2021/08/05 02:15:12;;;;;;;3.15;2.22;;;;;;;12.62;94.46;99007.63;5047165;28;20021;-65
2021/08/05 02:17:41;;;;;;;4.57;2.78;;;;;;;12.69;94.25;99019.78;5047098;28;20087;-65
2021/08/05 02:20:08;;;;;;;4.82;2.30;;;;;;;12.78;94.49;99019.59;5047067;28;20103;-65
2021/08/05 02:22:37;;;;;;;5.47;2.40;;;;;;;12.82;94.26;99030.97;5047036;28;20085;-65
2021/08/05 02:25:03;;;;;;;5.60;2.58;;;;;;;12.88;94.35;99033.47;5046947;28;20025;-65
2021/08/05 02:27:28;;;;;;;5.53;2.65;;;;;;;12.93;94.35;99050.09;5046879;28;20036;-65
2021/08/05 02:29:55;;;;;;;6.45;3.78;;;;;;;13.06;94.33;99037.50;5046855;28;20063;-65
2021/08/05 02:32:22;;;;;;;11.02;3.35;;;;;;;13.07;93.94;99049.81;5047933;28;20088;-65
2021/08/05 02:34:48;;;;;;;6.30;3.67;;;;;;;13.13;93.81;99041.75;5046796;28;20132;-65
2021/08/05 02:37:13;;;;;;;3.75;2.90;;;;;;;13.05;93.55;99071.00;5046763;28;20033;-65
2021/08/05 02:39:38;;;;;;;4.43;2.63;;;;;;;13.02;92.98;99087.78;5046793;28;20025;-65
2021/08/05 02:42:05;;;;;;;5.85;2.90;;;;;;;13.09;92.65;99092.94;5046859;28;20026;-65
2021/08/05 02:44:31;;;;;;;4.78;3.47;;;;;;;13.01;92.37;99012.03;5065824;28;20031;-65
2021/08/05 02:46:58;;;;;;;9.40;2.55;;;;;;;12.86;93.00;98980.69;5066468;28;20055;-65
2021/08/05 02:49:24;;;;;;;7.93;2.92;;;;;;;12.94;93.66;98973.44;5066539;28;20025;-65
2021/08/05 02:51:49;;;;;;;6.55;3.90;;;;;;;12.97;94.06;98978.63;5066459;28;20056;-65
2021/08/05 02:54:18;;;;;;;4.75;3.28;;;;;;;13.04;93.95;98974.97;5065442;28;20029;-65
2021/08/05 02:56:44;;;;;;;9.05;3.50;;;;;;;12.99;93.55;98955.75;5066405;28;20025;-65
2021/08/05 02:59:11;;;;;;;5.60;3.38;;;;;;;12.93;93.90;98947.03;5055998;28;20087;-65
2021/08/05 03:01:36;;;;;;;5.90;3.28;;;;;;;12.87;94.07;98939.25;5046822;28;20049;-65
2021/08/05 03:04:01;;;;;;;9.45;3.60;;;;;;;12.90;93.88;98940.06;5046194;28;20111;-65
2021/08/05 03:06:27;;;;;;;7.22;3.28;;;;;;;13.01;93.38;98927.47;5046149;28;20032;-65
2021/08/05 03:08:54;;;;;;;10.27;3.38;;;;;;;13.01;92.98;98913.44;5046153;28;20375;-65
2021/08/05 03:11:19;;;;;;;12.38;3.58;;;;;;;12.93;93.46;98908.28;5046089;28;20025;-65
2021/08/05 03:13:45;;;;;;;7.25;3.60;;;;;;;12.98;93.58;99022.66;5046095;28;20342;-65
2021/08/05 03:16:11;;;;;;;8.95;3.50;;;;;;;13.04;93.46;99041.03;5047158;28;20021;-65
2021/08/05 03:18:37;;;;;;;6.90;3.10;;;;;;;13.10;93.68;99095.53;5045996;28;20092;-65
2021/08/05 03:21:02;;;;;;;5.97;3.10;;;;;;;13.14;93.04;99088.41;5045930;28;20029;-65
2021/08/05 03:23:28;;;;;;;5.03;2.97;;;;;;;13.16;93.37;99091.91;5045914;28;20041;-65
2021/08/05 03:25:53;;;;;;;7.65;3.80;;;;;;;13.12;93.19;99108.69;5045805;28;20064;-65
2021/08/05 03:28:18;;;;;;;9.88;3.95;;;;;;;13.00;93.18;99100.16;5045834;28;20026;-65
2021/08/05 03:30:44;;;;;;;9.00;3.70;;;;;;;13.02;93.79;99145.03;5045771;28;20101;-65
2021/08/05 03:33:09;;;;;;;8.13;4.00;;;;;;;13.03;93.76;99137.09;5045833;28;20025;-65
2021/08/05 03:35:35;;;;;;;7.40;4.57;;;;;;;13.14;93.50;99143.91;5045678;28;20057;-65
2021/08/05 03:38:00;;;;;;;10.68;3.83;;;;;;;13.20;93.64;99157.00;5045624;28;20088;-65
2021/08/05 03:40:26;;;;;;;9.38;4.10;;;;;;;13.25;93.32;99163.06;5045601;28;20025;-65
2021/08/05 03:42:51;;;;;;;9.35;5.18;;;;;;;13.25;93.10;99147.22;5045523;28;20060;-65
2021/08/05 03:45:16;;;;;;;7.05;4.07;;;;;;;13.33;92.95;99156.72;5063520;28;20025;-65
2021/08/05 03:47:42;;;;;;;11.80;4.00;;;;;;;13.32;92.95;99117.09;5065416;28;20216;-65
2021/08/05 03:50:08;;;;;;;7.22;4.20;;;;;;;13.31;93.19;99131.19;5065348;28;20059;-65
2021/08/05 03:52:33;;;;;;;8.85;3.38;;;;;;;13.32;93.16;99148.81;5065348;28;20071;-65
2021/08/05 03:54:59;;;;;;;7.90;3.75;;;;;;;13.30;93.03;99179.69;5065257;28;20017;-65
2021/08/05 03:57:24;;;;;;;10.68;3.60;;;;;;;13.32;93.73;99185.81;5065201;28;20024;-65
2021/08/05 03:59:49;;;;;;;5.63;3.55;;;;;;;13.36;93.21;99185.72;5064913;28;20332;-65
2021/08/05 04:02:15;;;;;;;10.85;3.33;;;;;;;13.38;92.75;99212.13;5065120;28;20267;-65
2021/08/05 04:04:41;;;;;;;5.25;3.28;;;;;;;13.38;92.32;99213.00;5064879;28;20050;-65
2021/08/05 04:07:07;;;;;;;11.93;3.75;;;;;;;13.34;92.80;99202.50;5065009;28;20055;-65
2021/08/05 04:09:35;;;;;;;4.28;2.70;;;;;;;13.34;92.93;99219.25;5064905;28;20056;-65
2021/08/05 04:12:00;;;;;;;8.18;3.33;;;;;;;13.34;92.79;99131.13;5060206;28;20216;-65
2021/08/05 04:14:26;;;;;;;7.30;3.10;;;;;;;13.33;92.87;99161.13;5043610;28;20085;-66
2021/08/05 04:16:51;;;;;;;9.10;3.72;;;;;;;13.34;92.87;99165.50;5043958;28;20021;-65
2021/08/05 04:19:16;;;;;;;6.55;3.38;;;;;;;13.24;93.01;99182.47;5043910;28;20032;-65
2021/08/05 04:21:42;;;;;;;5.78;3.72;;;;;;;13.25;93.33;99211.50;5043897;28;20027;-65
2021/08/05 04:24:07;;;;;;;6.60;4.00;;;;;;;13.34;92.88;99239.53;5043848;28;20090;-65
2021/08/05 04:26:33;;;;;;;9.35;3.42;;;;;;;13.27;92.65;99314.59;5043653;28;20018;-65
2021/08/05 04:28:58;;;;;;;6.22;3.33;;;;;;;13.29;92.84;99276.63;5043371;28;20068;-65
2021/08/05 04:31:23;;;;;;;4.93;3.03;;;;;;;13.38;92.66;99291.47;5043691;28;20329;-65
2021/08/05 04:33:49;;;;;;;9.23;3.17;;;;;;;13.38;92.53;99302.03;5043516;28;20083;-65
2021/08/05 04:36:14;;;;;;;6.95;4.15;;;;;;;13.43;92.92;99310.72;5058063;28;20019;-65
2021/08/05 04:38:40;;;;;;;5.80;3.55;;;;;;;13.46;92.95;99321.25;5057699;28;20013;-65
2021/08/05 04:41:05;;;;;;;7.63;3.45;;;;;;;13.52;92.67;99335.25;5057258;28;20032;-65
2021/08/05 04:43:30;;;;;;;5.47;3.03;;;;;;;13.55;92.64;99331.66;5046571;28;20423;-65
2021/08/05 04:45:56;;;;;;;5.18;3.00;;;;;;;13.57;92.71;99366.88;5044304;28;20049;-65
2021/08/05 04:48:21;;;;;;;7.85;3.70;;;;;;;13.52;93.01;99368.75;5044326;28;20092;-65
2021/08/05 04:50:47;;;;;;;8.98;3.83;;;;;;;13.48;92.98;99393.50;5044368;28;20093;-65
2021/08/05 04:53:16;;;;;;;10.48;3.90;;;;;;;13.66;92.30;99440.75;5044319;28;20032;-65
2021/08/05 04:55:43;;;;;;;13.05;4.15;;;;;;;13.75;92.11;99414.13;5044245;28;20084;-65
2021/08/05 04:58:08;;;;;;;6.93;3.95;;;;;;;13.71;91.77;99423.03;5044213;28;20359;-65
2021/08/05 05:00:37;;;;;;;7.47;3.83;;;;;;;13.69;92.61;99420.41;5044013;28;20045;-65
2021/08/05 05:03:03;;;;;;;11.82;3.38;;;;;;;13.85;92.96;99458.91;5044081;28;20029;-65
2021/08/05 05:05:29;;;;;;;5.28;2.70;;;;;;;13.99;92.67;99450.72;5044001;28;20029;-65
2021/08/05 05:07:55;;;;;;;4.97;3.05;;;;;;;14.08;91.80;99461.13;5044040;28;20017;-65
2021/08/05 05:10:22;;;;;;;8.23;3.22;;;;;;;14.11;91.98;99472.50;5044118;28;20084;-65
2021/08/05 05:12:48;;;;;;;7.90;3.15;;;;;;;14.20;91.83;99482.03;5043984;28;20033;-65
2021/08/05 05:15:15;;;;;;;8.20;3.10;;;;;;;14.27;91.64;99380.44;5043928;28;20237;-65
2021/08/05 05:17:42;;;;;;;6.93;3.45;;;;;;;14.41;91.64;99365.09;5042507;28;20093;-65
2021/08/05 05:20:09;;;;;;;4.38;2.85;;;;;;;14.55;91.70;99389.47;5043909;28;20308;-65
2021/08/05 05:22:35;;;;;;;13.52;3.40;;;;;;;14.65;91.54;99359.22;5043855;28;20068;-65
2021/08/05 05:25:02;;;;;;;4.75;2.97;;;;;;;14.75;91.24;99355.44;5044049;28;20022;-65
2021/08/05 05:27:28;;;;;;;7.90;2.80;;;;;;;14.98;90.90;99376.94;5043831;28;20017;-65
2021/08/05 05:29:59;;;;;;;5.53;3.22;;;;;;;15.23;90.52;99374.50;5043836;28;20018;-65
2021/08/05 05:32:26;;;;;;;6.63;3.17;;;;;;;15.26;90.94;99354.09;5044113;28;20028;-65
2021/08/05 05:34:52;;;;;;;6.75;3.47;;;;;;;15.34;90.86;99341.47;5043844;28;20254;-65
2021/08/05 05:37:18;;;;;;;7.32;3.33;;;;;;;15.33;90.65;99336.22;5043755;28;20021;-65
2021/08/05 05:39:45;;;;;;;8.80;3.38;;;;;;;15.21;90.67;99324.16;5043770;28;20025;-65
2021/08/05 05:42:10;;;;;;;6.43;3.42;;;;;;;15.11;91.16;99317.38;5043722;28;20025;-65
2021/08/05 05:44:35;;;;;;;7.28;3.42;;;;;;;15.09;91.12;99313.88;5043671;28;20092;-65
2021/08/05 05:47:01;;;;;;;7.03;3.72;;;;;;;15.13;91.04;99302.31;5043575;28;20068;-65
2021/08/05 05:49:26;;;;;;;9.05;3.30;;;;;;;15.25;90.85;99309.91;5043635;28;20032;-65
2021/08/05 05:51:52;;;;;;;6.72;3.25;;;;;;;15.28;91.18;99293.91;5043655;28;20026;-65
2021/08/05 05:54:17;;;;;;;8.85;3.83;;;;;;;15.34;91.06;99299.03;5043614;28;20026;-65
2021/08/05 05:56:43;;;;;;;8.20;4.57;;;;;;;15.43;91.45;99298.81;5043945;28;20072;-65
2021/08/05 05:59:08;;;;;;;7.75;3.50;;;;;;;15.69;90.99;99306.91;5043547;28;20021;-65
2021/08/05 06:01:35;;;;;;;9.63;3.85;;;;;;;15.89;91.08;99320.47;5043385;28;20048;-65
2021/08/05 06:04:00;;;;;;;8.65;3.92;;;;;;;16.04;91.27;99320.00;5043445;28;20092;-65
2021/08/05 06:06:26;;;;;;;9.73;4.20;;;;;;;16.23;91.00;99329.16;5043423;28;20025;-65
2021/08/05 06:08:51;;;;;;;8.02;4.20;;;;;;;16.61;89.98;99339.47;5042292;28;20056;-65
2021/08/05 06:11:16;;;;;;;5.88;3.65;;;;;;;16.70;89.44;99360.44;5043459;28;20216;-65
2021/08/05 06:13:42;;;;;;;7.30;4.55;;;;;;;16.86;88.79;99324.44;5043451;28;20085;-65
2021/08/05 06:16:07;;;;;;;7.15;3.90;;;;;;;17.02;87.58;99807.13;5043379;28;20080;-65
2021/08/05 06:18:32;;;;;;;8.52;4.13;;;;;;;17.12;86.49;99611.75;5043389;28;20029;-65
2021/08/05 06:20:58;;;;;;;7.15;3.72;;;;;;;17.23;86.41;99553.75;5043361;28;20032;-65
2021/08/05 06:23:23;;;;;;;10.68;3.72;;;;;;;17.37;86.59;99513.38;5043339;28;20021;-65
2021/08/05 06:25:49;;;;;;;9.85;3.50;;;;;;;17.58;86.30;99278.44;5043258;28;20034;-65
2021/08/05 06:28:14;;;;;;;7.68;3.70;;;;;;;17.75;86.62;99227.25;5045572;28;20021;-65
2021/08/05 06:30:39;;;;;;;6.95;3.85;;;;;;;18.26;84.81;99598.28;5046930;28;20021;-65
2021/08/05 06:33:05;;;;;;;6.70;3.78;;;;;;;18.59;82.70;100741.25;5046878;28;20097;-65
2021/08/05 06:35:30;;;;;;;6.53;4.03;;;;;;;18.45;81.30;99663.38;5046835;28;20088;-65
2021/08/05 06:37:55;;;;;;;7.35;3.80;;;;;;;18.28;82.50;99399.19;5046808;28;20095;-65
2021/08/05 06:40:21;;;;;;;10.00;3.90;;;;;;;18.69;82.18;99198.47;5046742;28;20030;-65
2021/08/05 06:42:46;;;;;;;7.05;3.90;;;;;;;18.75;82.54;99219.53;5046723;28;20320;-65
2021/08/05 06:45:13;;;;;;;6.78;3.90;;;;;;;18.83;83.83;99143.59;5046596;28;20067;-65
2021/08/05 06:47:47;;;;;;;9.75;4.15;;;;;;;18.86;83.20;99163.94;5046598;28;20025;-65
2021/08/05 06:50:13;;;;;;;7.55;3.85;;;;;;;18.84;83.57;99157.81;5046618;28;20029;-65
2021/08/05 06:52:39;;;;;;;6.10;3.63;;;;;;;18.79;82.10;99066.44;5046517;28;20032;-65
2021/08/05 06:55:05;;;;;;;6.50;3.85;;;;;;;18.80;82.50;99036.19;5046469;28;20021;-65
2021/08/05 06:57:31;;;;;;;10.75;3.72;;;;;;;18.82;81.98;98911.63;5046444;28;20194;-65
2021/08/05 06:59:58;;;;;;;6.75;3.58;;;;;;;18.97;82.00;98873.53;5046203;28;20083;-66
2021/08/05 07:02:23;;;;;;;6.93;3.97;;;;;;;19.08;81.88;98849.88;5046286;28;20084;-66
2021/08/05 07:04:49;;;;;;;4.72;3.05;;;;;;;19.16;81.62;98917.94;5046274;28;20021;-66
2021/08/05 07:07:14;;;;;;;6.13;3.70;;;;;;;19.19;81.68;98927.56;5046269;28;20017;-66
2021/08/05 07:09:39;;;;;;;6.38;3.47;;;;;;;19.38;80.55;98917.75;5045057;28;20021;-66
2021/08/05 07:12:05;;;;;;;6.25;3.33;;;;;;;19.35;80.40;98815.59;5046164;28;20017;-65
2021/08/05 07:14:30;;;;;;;6.70;3.25;;;;;;;19.52;79.92;98795.09;5046128;28;20031;-65
2021/08/05 07:16:56;;;;;;;6.63;3.15;;;;;;;19.63;76.89;98789.19;5046053;28;20059;-65
2021/08/05 07:19:22;;;;;;;6.03;3.63;;;;;;;19.76;77.85;100142.03;5045962;28;20040;-65
2021/08/05 07:21:47;;;;;;;4.60;3.25;;;;;;;19.89;78.38;99315.84;5045974;28;20029;-65
2021/08/05 07:24:13;;;;;;;4.72;2.85;;;;;;;19.91;73.98;99158.13;5045945;28;20017;-65
2021/08/05 07:26:40;;;;;;;6.85;3.25;;;;;;;19.98;76.22;99107.00;5045838;28;20127;-65
2021/08/05 07:29:05;;;;;;;5.45;2.85;;;;;;;19.99;75.98;99055.28;5045826;28;20332;-65
2021/08/05 07:31:31;;;;;;;6.00;3.10;;;;;;;20.07;74.30;98940.84;5045822;28;20021;-65
2021/08/05 07:33:56;;;;;;;5.47;2.45;;;;;;;20.15;74.30;99238.03;5045729;28;20071;-65
2021/08/05 07:36:22;;;;;;;5.85;3.00;;;;;;;20.59;71.56;99565.72;5045707;28;20063;-65
2021/08/05 07:38:48;;;;;;;6.63;2.85;;;;;;;22.08;70.29;100643.81;5045192;28;20025;-65
2021/08/05 07:41:13;;;;;;;6.25;2.53;;;;;;;23.68;61.43;99217.28;5045654;28;20021;-65
2021/08/05 07:43:39;;;;;;;4.10;2.75;;;;;;;24.36;60.82;99127.59;5045573;28;20216;-65
2021/08/05 07:46:04;;;;;;;6.22;3.55;;;;;;;24.21;60.03;98994.13;5045688;28;20261;-65
2021/08/05 07:48:30;;;;;;;4.53;2.60;;;;;;;23.49;61.88;98847.69;5045497;28;20048;-65
2021/08/05 07:50:55;;;;;;;3.85;2.00;;;;;;;22.71;61.98;98869.91;5045459;28;20037;-65
2021/08/05 07:53:21;;;;;;;4.30;3.28;;;;;;;22.32;63.51;99116.47;5045392;28;20025;-65
2021/08/05 07:55:46;;;;;;;4.88;2.70;;;;;;;22.95;63.48;99719.47;5045331;28;20048;-65
2021/08/05 07:58:12;;;;;;;7.80;2.63;;;;;;;22.47;63.61;99204.13;5045310;28;20251;-65
2021/08/05 08:00:37;;;;;;;3.50;2.28;;;;;;;24.78;58.23;99291.66;5045055;28;20045;-65
2021/08/05 08:03:04;;;;;;;4.05;2.15;;;;;;;25.63;55.58;99091.72;5045101;28;20021;-65
2021/08/05 08:05:30;;;;;;;4.68;2.40;;;;;;;25.29;56.19;99069.88;5045046;28;20021;-65
2021/08/05 08:07:55;;;;;;;6.15;2.55;;;;;;;25.85;53.02;98893.13;5043940;28;20344;-65
2021/08/05 08:10:21;;;;;;;4.40;2.10;;;;;;;24.15;58.75;98838.56;5045000;28;20021;-65
2021/08/05 08:12:46;;;;;;;5.55;2.88;;;;;;;24.05;57.45;98794.44;5045022;28;20085;-65
2021/08/05 08:15:12;;;;;;;5.00;2.53;;;;;;;24.19;56.98;100815.00;5045011;28;20313;-65
2021/08/05 08:17:37;;;;;;;3.47;2.30;;;;;;;25.10;58.79;100872.22;5044924;28;20313;-65
2021/08/05 08:20:09;;;;;;;6.55;2.55;;;;;;;24.89;57.59;99043.19;5045077;28;20032;-65
2021/08/05 08:22:34;;;;;;;4.35;2.40;;;;;;;24.74;57.94;98871.97;5044704;28;20223;-65
2021/08/05 08:25:00;;;;;;;5.88;3.03;;;;;;;24.51;57.20;99055.72;5044719;28;20021;-65
2021/08/05 08:27:25;;;;;;;3.78;2.60;;;;;;;23.67;58.12;98844.63;5044741;28;20029;-65
2021/08/05 08:29:50;;;;;;;3.58;2.20;;;;;;;23.29;61.60;98814.13;5044699;28;20185;-65
2021/08/05 08:32:16;;;;;;;6.00;3.28;;;;;;;23.15;60.12;98623.50;5044645;28;20028;-65
2021/08/05 08:34:41;;;;;;;5.30;2.38;;;;;;;23.55;60.03;99024.63;5044615;28;20212;-65
2021/08/05 08:37:07;;;;;;;4.22;2.70;;;;;;;22.76;60.46;99028.84;5044537;28;20047;-65
2021/08/05 08:39:33;;;;;;;3.20;2.10;;;;;;;22.80;62.47;98812.94;5044514;28;20023;-65
2021/08/05 08:41:58;;;;;;;3.30;2.30;;;;;;;22.92;60.62;98809.47;5044475;28;20021;-65
2021/08/05 08:44:24;;;;;;;4.43;2.47;;;;;;;22.41;61.87;98743.09;5044415;28;20064;-65
2021/08/05 08:46:49;;;;;;;5.13;2.60;;;;;;;22.31;61.83;98699.91;5044334;28;20092;-65
2021/08/05 08:49:22;;;;;;;3.72;2.30;;;;;;;22.06;63.71;98661.41;5044355;28;20063;-65
2021/08/05 08:51:49;;;;;;;6.70;2.47;;;;;;;22.03;64.96;98669.63;5043548;28;20104;-65
2021/08/05 08:54:15;;;;;;;3.38;2.25;;;;;;;22.32;63.86;98663.22;5044260;28;20025;-65
2021/08/05 08:56:42;;;;;;;5.05;2.67;;;;;;;22.29;63.20;98658.06;5044281;28;20276;-65
2021/08/05 08:59:08;;;;;;;5.13;2.85;;;;;;;21.81;64.13;98634.47;5044174;28;20350;-65
2021/08/05 09:01:39;;;;;;;4.60;2.28;;;;;;;21.95;63.69;98621.00;5044040;28;20097;-65
2021/08/05 09:04:06;;;;;;;2.85;2.08;;;;;;;21.54;66.06;98604.06;5044131;28;20343;-65
2021/08/05 09:06:32;;;;;;;3.60;2.40;;;;;;;21.54;65.35;98590.66;5044021;28;20213;-65
2021/08/05 09:08:58;;;;;;;8.18;2.67;;;;;;;21.58;67.18;98602.91;5044064;28;20113;-65
2021/08/05 09:11:23;;;;;;;4.65;2.05;;;;;;;21.56;66.59;98596.78;5044043;28;20090;-65
2021/08/05 09:13:49;;;;;;;4.80;2.58;;;;;;;21.56;66.34;98580.69;5044100;28;20041;-65
2021/08/05 09:16:29;;;;;;;4.47;2.80;;;;;;;22.91;63.01;98619.84;5044075;28;20055;-65
2021/08/05 09:19:05;;;;;;;6.20;2.53;;;;;;;23.55;61.34;98617.06;5044048;28;20216;-65
2021/08/05 09:21:32;;;;;;;5.07;2.15;;;;;;;23.89;58.36;98621.69;5043991;28;20028;-65
2021/08/05 09:24:06;;;;;;;3.95;2.65;;;;;;;24.21;58.88;98612.16;5043913;28;20018;-65
2021/08/05 09:26:37;;;;;;;6.05;2.67;;;;;;;24.39;59.23;98620.69;5044105;28;20025;-65
2021/08/05 09:29:15;;;;;;;2.88;2.33;;;;;;;24.34;56.63;98595.94;5043830;28;20048;-65
2021/08/05 09:31:50;;;;;;;3.38;2.25;;;;;;;25.32;56.37;98636.78;5043837;28;20013;-65
2021/08/05 09:34:21;;;;;;;3.42;2.17;;;;;;;25.37;54.24;98618.44;5044069;28;20067;-65
2021/08/05 09:36:49;;;;;;;3.70;2.33;;;;;;;24.51;55.87;98878.97;5043790;28;20063;-65
2021/08/05 09:39:18;;;;;;;3.97;2.45;;;;;;;24.09;57.32;98733.22;5043750;28;20025;-65
2021/08/05 09:42:03;;;;;;;3.42;2.17;;;;;;;24.03;57.24;98696.00;5043733;28;20027;-65
2021/08/05 09:44:34;;;;;;;3.88;2.00;;;;;;;23.66;58.23;98606.38;5043670;28;20096;-65
2021/08/05 09:47:06;;;;;;;3.53;2.20;;;;;;;22.64;61.06;98563.56;5043638;28;20025;-65
2021/08/05 09:49:34;;;;;;;3.83;2.30;;;;;;;22.63;60.69;98567.22;5043671;28;20313;-65
2021/08/05 09:52:01;;;;;;;4.35;2.30;;;;;;;22.75;59.57;98566.34;5043638;28;20215;-65
2021/08/05 09:54:51;;;;;;;4.10;2.40;;;;;;;22.92;62.35;98573.25;5043640;28;20209;-65
2021/08/05 09:57:35;;;;;;;4.15;2.38;;;;;;;23.11;60.80;98568.28;5043679;28;20089;-65
2021/08/05 10:00:08;;;;;;;2.83;2.10;;;;;;;23.07;61.95;98566.81;5043362;28;20337;-65
2021/08/05 10:02:53;;;;;;;4.70;2.50;;;;;;;22.84;60.64;98554.13;5044773;28;20084;-65
2021/08/05 10:05:24;;;;;;;3.85;2.33;;;;;;;22.21;62.14;98534.38;5047240;28;20037;-65
2021/08/05 10:07:51;;;;;;;2.70;2.20;;;;;;;22.31;62.53;98525.59;5046237;28;20332;-65
2021/08/05 10:10:19;;;;;;;3.20;2.30;;;;;;;22.23;62.10;98505.63;5047316;28;20028;-65
2021/08/05 10:12:57;;;;;;;7.00;2.50;;;;;;;22.11;64.91;98498.44;5047294;28;20021;-65
2021/08/05 10:15:22;;;;;;;4.57;2.60;;;;;;;22.45;63.08;98500.50;5047289;28;20026;-65
2021/08/05 10:17:54;;;;;;;3.63;2.42;;;;;;;22.33;63.53;98494.19;5046085;28;20026;-65
2021/08/05 10:20:21;;;;;;;12.10;2.53;;;;;;;22.30;63.12;98576.69;5047182;28;20064;-65
2021/08/05 10:22:48;;;;;;;3.15;2.20;;;;;;;22.40;63.45;98556.31;5047127;28;20025;-65
2021/08/05 10:25:15;;;;;;;3.83;2.15;;;;;;;22.39;63.83;98551.88;5047029;28;20044;-65
2021/08/05 10:27:43;;;;;;;4.85;2.72;;;;;;;22.21;63.78;98520.97;5047059;28;20312;-65
2021/08/05 10:30:11;;;;;;;4.70;2.40;;;;;;;22.24;63.32;98526.13;5046960;28;20021;-65
2021/08/05 10:32:38;;;;;;;4.25;2.70;;;;;;;22.35;62.91;98518.22;5046922;28;20026;-65
2021/08/05 10:35:05;;;;;;;5.90;2.80;;;;;;;22.13;65.19;98501.84;5046869;28;20025;-65
2021/08/05 10:37:30;;;;;;;4.68;2.60;;;;;;;21.96;65.05;98499.47;5046849;28;20018;-65
2021/08/05 10:39:57;;;;;;;4.53;2.60;;;;;;;21.92;66.17;98481.88;5046785;28;20021;-65
2021/08/05 10:42:22;;;;;;;5.28;2.85;;;;;;;22.17;66.68;98487.28;5046969;28;20100;-65
2021/08/05 10:44:50;;;;;;;3.83;2.55;;;;;;;22.35;66.14;98451.16;5046802;28;20263;-65
2021/08/05 10:47:27;;;;;;;3.58;2.25;;;;;;;22.14;66.70;98439.22;5046649;28;20048;-65
2021/08/05 10:49:58;;;;;;;4.68;2.90;;;;;;;22.71;64.50;98480.78;5046645;28;20029;-65
2021/08/05 10:52:44;;;;;;;6.22;3.20;;;;;;;22.40;64.87;98441.81;5046657;28;20032;-65
2021/08/05 10:55:16;;;;;;;4.00;2.88;;;;;;;22.36;65.59;98439.47;5046518;28;20026;-65
2021/08/05 10:57:45;;;;;;;5.85;2.63;;;;;;;22.87;63.18;98451.91;5046492;28;20025;-65
2021/08/05 11:00:14;;;;;;;3.60;2.42;;;;;;;23.73;62.73;98406.06;5046238;28;20104;-65
2021/08/05 11:02:55;;;;;;;4.32;2.70;;;;;;;23.36;60.95;98417.88;5046288;28;20029;-65
2021/08/05 11:05:23;;;;;;;3.35;2.20;;;;;;;23.55;60.74;98402.09;5046217;28;20083;-65
2021/08/05 11:07:54;;;;;;;2.90;2.15;;;;;;;23.05;62.21;98719.94;5046317;28;20028;-65
2021/08/05 11:10:24;;;;;;;3.97;2.42;;;;;;;23.89;60.25;98476.50;5046239;28;20025;-65
2021/08/05 11:13:11;;;;;;;5.82;2.45;;;;;;;24.36;59.05;98441.50;5046162;28;20044;-65
2021/08/05 11:15:36;;;;;;;4.28;2.20;;;;;;;24.71;57.57;98434.22;5048184;28;20122;-66
2021/08/05 11:18:11;;;;;;;3.20;2.20;;;;;;;25.14;56.02;98431.63;5046101;28;20021;-66
2021/08/05 11:20:42;;;;;;;4.15;2.22;;;;;;;24.70;58.47;98545.59;5046044;28;20041;-66
2021/08/05 11:23:34;;;;;;;3.90;2.40;;;;;;;25.27;56.08;98421.56;5046019;28;20197;-66
2021/08/05 11:26:00;;;;;;;3.55;2.20;;;;;;;25.43;55.72;98394.28;5045743;28;20029;-66
2021/08/05 11:28:42;;;;;;;4.25;2.13;;;;;;;25.62;53.84;98507.69;5045874;28;20025;-66
2021/08/05 11:31:11;;;;;;;3.58;2.22;;;;;;;24.52;56.57;98439.31;5045885;28;20029;-66
2021/08/05 11:33:36;;;;;;;6.10;2.00;;;;;;;24.44;56.97;98433.69;5045847;28;20229;-66